createdAt,value
2022-07-30T00:00:09.941Z,13.9
2022-07-30T00:01:20.068Z,14.1
2022-07-30T00:02:30.177Z,14
2022-07-30T00:03:40.297Z,14
2022-07-30T00:04:50.423Z,13.9
2022-07-30T00:06:00.544Z,13.3
2022-07-30T00:07:09.681Z,13.9
2022-07-30T00:08:18.812Z,13.9
2022-07-30T00:09:28.925Z,14.1
2022-07-30T00:10:39.059Z,14
2022-07-30T00:11:49.176Z,13.3
2022-07-30T00:12:59.284Z,13.9
2022-07-30T00:14:09.414Z,13.8
2022-07-30T00:15:19.524Z,13.7
2022-07-30T00:16:29.640Z,13.2
2022-07-30T00:17:39.766Z,13.4
2022-07-30T00:18:49.880Z,13.5
2022-07-30T00:19:59.993Z,13.7
2022-07-30T00:21:10.115Z,13.2
2022-07-30T00:22:20.226Z,13.8
2022-07-30T00:23:29.363Z,13.2
2022-07-30T00:24:39.491Z,13.2
2022-07-30T00:25:49.604Z,13.2
2022-07-30T00:26:59.712Z,13.1
2022-07-30T00:28:09.835Z,14
2022-07-30T00:29:19.964Z,13.8
2022-07-30T00:30:30.083Z,14
2022-07-30T00:31:39.225Z,13.1
2022-07-30T00:32:48.351Z,13.2
2022-07-30T00:33:57.493Z,14.1
2022-07-30T00:35:06.630Z,13.7
2022-07-30T00:36:16.757Z,13.4
2022-07-30T00:37:26.873Z,13.2
2022-07-30T00:38:36.991Z,14
2022-07-30T00:39:46.131Z,14
2022-07-30T00:40:56.257Z,13.8
2022-07-30T00:42:05.376Z,13.3
2022-07-30T00:43:15.506Z,13.9
2022-07-30T00:44:25.613Z,13.9
2022-07-30T00:45:35.744Z,13.2
2022-07-30T00:46:45.852Z,13.2
2022-07-30T00:47:55.977Z,13.9
2022-07-30T00:49:06.093Z,14
2022-07-30T00:50:16.210Z,13.1
2022-07-30T00:51:26.325Z,13.9
2022-07-30T00:53:46.569Z,13.8
2022-07-30T00:54:56.684Z,13.2
2022-07-30T00:56:06.805Z,13.2
2022-07-30T00:57:15.924Z,13.3
2022-07-30T00:58:26.057Z,13.7
2022-07-30T00:59:36.169Z,13.2
2022-07-30T01:00:46.287Z,13.8
2022-07-30T01:01:56.400Z,13.8
2022-07-30T01:03:06.533Z,13.9
2022-07-30T01:04:16.646Z,13.4
2022-07-30T01:05:25.779Z,14.2
2022-07-30T01:06:34.918Z,13.3
2022-07-30T01:07:45.034Z,13.8
2022-07-30T01:08:54.177Z,13.9
2022-07-30T01:10:03.325Z,13.3
2022-07-30T01:11:13.442Z,13.1
2022-07-30T01:12:23.552Z,14
2022-07-30T01:13:33.667Z,13.3
2022-07-30T01:14:43.794Z,13.8
2022-07-30T01:15:53.918Z,14
2022-07-30T01:17:04.019Z,13.2
2022-07-30T01:18:14.142Z,13.3
2022-07-30T01:19:24.258Z,14.1
2022-07-30T01:20:34.374Z,13.3
2022-07-30T01:21:44.494Z,13.1
2022-07-30T01:22:54.618Z,12.9
2022-07-30T01:24:04.731Z,13.8
2022-07-30T01:25:13.858Z,13.8
2022-07-30T01:26:23.993Z,13.4
2022-07-30T01:27:34.108Z,13.5
2022-07-30T01:28:44.231Z,13.1
2022-07-30T01:29:54.330Z,13.5
2022-07-30T01:31:04.467Z,14
2022-07-30T01:32:14.572Z,13.8
2022-07-30T01:33:23.718Z,13.1
2022-07-30T01:34:32.846Z,13.5
2022-07-30T01:35:42.000Z,13.2
2022-07-30T01:36:51.140Z,13.2
2022-07-30T01:38:01.248Z,13.8
2022-07-30T01:39:11.363Z,13.3
2022-07-30T01:41:31.596Z,13.3
2022-07-30T01:42:41.715Z,13.3
2022-07-30T01:43:51.836Z,12.9
2022-07-30T01:45:01.949Z,12.9
2022-07-30T01:46:12.083Z,13.1
2022-07-30T01:47:22.200Z,12.9
2022-07-30T01:48:32.309Z,13.3
2022-07-30T01:49:42.440Z,13.8
2022-07-30T01:50:52.558Z,12.9
2022-07-30T01:52:01.683Z,14
2022-07-30T01:53:11.806Z,13.5
2022-07-30T01:54:21.912Z,13.7
2022-07-30T01:55:32.032Z,13.2
2022-07-30T01:56:42.161Z,13.2
2022-07-30T01:57:52.266Z,13.4
2022-07-30T01:59:02.395Z,13.2
2022-07-30T02:00:12.499Z,13.5
2022-07-30T02:01:21.661Z,13.1
2022-07-30T02:02:30.781Z,13.8
2022-07-30T02:03:39.933Z,13.8
2022-07-30T02:04:49.058Z,13.4
2022-07-30T02:05:59.190Z,13.1
2022-07-30T02:07:09.301Z,12.9
2022-07-30T02:08:19.422Z,13.4
2022-07-30T02:09:29.535Z,13.4
2022-07-30T02:10:39.648Z,13.2
2022-07-30T02:11:49.769Z,13.8
2022-07-30T02:12:59.900Z,13.3
2022-07-30T02:14:10.017Z,13.3
2022-07-30T02:15:20.121Z,13.7
2022-07-30T02:16:30.254Z,14.1
2022-07-30T02:17:40.357Z,13.4
2022-07-30T02:18:50.480Z,13
2022-07-30T02:19:59.607Z,13.8
2022-07-30T02:21:09.741Z,13.5
2022-07-30T02:22:19.841Z,13
2022-07-30T02:23:29.975Z,13.1
2022-07-30T02:24:40.093Z,12.9
2022-07-30T02:25:50.197Z,13.8
2022-07-30T02:27:00.333Z,13
2022-07-30T02:28:09.467Z,13.8
2022-07-30T02:29:18.607Z,13.8
2022-07-30T02:30:28.714Z,12.9
2022-07-30T02:31:38.844Z,13.4
2022-07-30T02:32:48.961Z,13.3
2022-07-30T02:33:59.079Z,13.2
2022-07-30T02:35:09.191Z,13.8
2022-07-30T02:36:19.323Z,13.3
2022-07-30T02:37:29.423Z,13.7
2022-07-30T02:38:39.548Z,13
2022-07-30T02:39:49.673Z,13.9
2022-07-30T02:40:59.796Z,13
2022-07-30T02:42:09.909Z,13.8
2022-07-30T02:43:20.032Z,13.7
2022-07-30T02:44:29.159Z,13.3
2022-07-30T02:45:39.264Z,13.7
2022-07-30T02:46:49.398Z,12.9
2022-07-30T02:47:59.514Z,13.7
2022-07-30T02:49:09.637Z,13.1
2022-07-30T02:50:19.749Z,13.5
2022-07-30T02:51:29.857Z,13.1
2022-07-30T02:52:39.978Z,13.8
2022-07-30T02:53:49.118Z,13.7
2022-07-30T02:54:58.259Z,13.3
2022-07-30T02:56:07.413Z,13.7
2022-07-30T02:57:16.548Z,13.3
2022-07-30T02:58:26.657Z,13
2022-07-30T02:59:36.766Z,13.5
2022-07-30T03:00:46.896Z,13.1
2022-07-30T03:01:57.007Z,13.8
2022-07-30T03:03:07.129Z,13
2022-07-30T03:04:17.246Z,13
2022-07-30T03:05:27.374Z,13.5
2022-07-30T03:06:37.478Z,13.3
2022-07-30T03:07:47.607Z,13.8
2022-07-30T03:08:57.717Z,13
2022-07-30T03:10:07.841Z,13.8
2022-07-30T03:11:17.962Z,13.7
2022-07-30T03:12:27.090Z,13.3
2022-07-30T03:13:37.202Z,12.9
2022-07-30T03:14:47.326Z,13.2
2022-07-30T03:15:57.448Z,13.1
2022-07-30T03:17:07.564Z,12.9
2022-07-30T03:18:17.674Z,13.4
2022-07-30T03:19:27.800Z,13.5
2022-07-30T03:20:36.949Z,13.4
2022-07-30T03:21:46.069Z,13.3
2022-07-30T03:22:56.196Z,13.7
2022-07-30T03:24:06.466Z,12.9
2022-07-30T03:25:15.589Z,13.3
2022-07-30T03:26:25.700Z,13.4
2022-07-30T03:27:35.837Z,13.3
2022-07-30T03:28:45.950Z,13.8
2022-07-30T03:29:56.058Z,13.1
2022-07-30T03:31:06.185Z,13.3
2022-07-30T03:32:16.298Z,13.3
2022-07-30T03:34:36.535Z,13.8
2022-07-30T03:35:46.646Z,13.4
2022-07-30T03:36:56.771Z,13.3
2022-07-30T03:38:06.890Z,12.9
2022-07-30T03:39:17.005Z,13.3
2022-07-30T03:40:27.117Z,13.7
2022-07-30T03:41:36.268Z,13.5
2022-07-30T03:42:46.374Z,13.8
2022-07-30T03:43:56.504Z,13.3
2022-07-30T03:45:06.622Z,13.2
2022-07-30T03:46:16.733Z,13.4
2022-07-30T03:47:26.860Z,13.3
2022-07-30T03:48:36.964Z,13.8
2022-07-30T03:49:46.106Z,13.3
2022-07-30T03:50:55.247Z,13.2
2022-07-30T03:52:05.357Z,13.3
2022-07-30T03:53:15.487Z,13.2
2022-07-30T03:54:25.604Z,13.8
2022-07-30T03:55:35.713Z,13.1
2022-07-30T03:56:45.840Z,13.1
2022-07-30T03:57:55.960Z,13.3
2022-07-30T03:59:06.080Z,12.9
2022-07-30T04:00:16.185Z,13.1
2022-07-30T04:01:26.316Z,13.2
2022-07-30T04:02:36.428Z,13.8
2022-07-30T04:03:46.542Z,13.3
2022-07-30T04:04:56.659Z,13.1
2022-07-30T04:06:05.795Z,13.3
2022-07-30T04:07:15.909Z,13.5
2022-07-30T04:08:26.024Z,13.3
2022-07-30T04:09:36.145Z,13.5
2022-07-30T04:10:46.274Z,13.3
2022-07-30T04:11:56.392Z,13.5
2022-07-30T04:13:06.495Z,13.3
2022-07-30T04:14:15.643Z,13.8
2022-07-30T04:15:24.782Z,13.1
2022-07-30T04:16:33.917Z,13.8
2022-07-30T04:17:43.059Z,13.7
2022-07-30T04:18:52.211Z,13.4
2022-07-30T04:20:01.347Z,13.4
2022-07-30T04:21:11.455Z,13
2022-07-30T04:22:21.581Z,13.1
2022-07-30T04:23:31.700Z,13.3
2022-07-30T04:24:41.801Z,13.2
2022-07-30T04:25:51.933Z,13.8
2022-07-30T04:27:02.047Z,13.3
2022-07-30T04:28:12.175Z,12.9
2022-07-30T04:29:22.290Z,13
2022-07-30T04:30:32.403Z,13.4
2022-07-30T04:31:42.510Z,13.1
2022-07-30T04:32:52.646Z,13.3
2022-07-30T04:34:02.751Z,13.2
2022-07-30T04:35:11.890Z,13.8
2022-07-30T04:36:22.010Z,13.5
2022-07-30T04:37:32.130Z,13.1
2022-07-30T04:38:42.236Z,13.1
2022-07-30T04:39:52.359Z,13.8
2022-07-30T04:41:02.000Z,13.2
2022-07-30T04:42:12.597Z,13.1
2022-07-30T04:43:21.749Z,13.8
2022-07-30T04:44:30.869Z,13.8
2022-07-30T04:45:40.013Z,13
2022-07-30T04:46:49.161Z,13.8
2022-07-30T04:47:59.263Z,13.3
2022-07-30T04:49:09.389Z,13.4
2022-07-30T04:50:19.499Z,13.7
2022-07-30T04:51:29.629Z,13
2022-07-30T04:52:39.732Z,12.9
2022-07-30T04:53:49.851Z,13.3
2022-07-30T04:54:59.977Z,13.4
2022-07-30T04:56:10.089Z,13.1
2022-07-30T04:57:20.218Z,13.8
2022-07-30T04:58:30.321Z,13.1
2022-07-30T04:59:40.458Z,13.8
2022-07-30T05:00:50.565Z,13.8
2022-07-30T05:01:59.706Z,13.8
2022-07-30T05:03:09.819Z,13.1
2022-07-30T05:04:19.940Z,13.4
2022-07-30T05:05:30.056Z,13.8
2022-07-30T05:06:40.180Z,13.8
2022-07-30T05:07:50.282Z,13.3
2022-07-30T05:09:00.401Z,13.1
2022-07-30T05:10:09.547Z,13.5
2022-07-30T05:11:18.683Z,13.1
2022-07-30T05:12:28.803Z,13.2
2022-07-30T05:13:38.919Z,13.4
2022-07-30T05:14:49.039Z,13.1
2022-07-30T05:15:59.158Z,13.6
2022-07-30T05:17:09.284Z,13.5
2022-07-30T05:18:19.385Z,12.7
2022-07-30T05:21:49.740Z,13
2022-07-30T05:22:59.858Z,13.4
2022-07-30T05:24:09.978Z,13.5
2022-07-30T05:25:19.118Z,13.1
2022-07-30T05:26:28.242Z,13.5
2022-07-30T05:27:38.372Z,12.9
2022-07-30T05:28:48.492Z,13.7
2022-07-30T05:29:58.601Z,13.1
2022-07-30T05:31:08.720Z,13.1
2022-07-30T05:32:18.843Z,13.1
2022-07-30T05:33:28.948Z,13.3
2022-07-30T05:34:39.079Z,13.2
2022-07-30T05:35:49.183Z,13.8
2022-07-30T05:36:59.300Z,12.6
2022-07-30T05:38:08.446Z,13.2
2022-07-30T05:39:18.573Z,13.4
2022-07-30T05:40:27.718Z,13.1
2022-07-30T05:41:36.843Z,13.8
2022-07-30T05:42:46.976Z,13.1
2022-07-30T05:43:57.084Z,13
2022-07-30T05:45:07.195Z,13.4
2022-07-30T05:48:37.557Z,13.1
2022-07-30T05:49:47.679Z,13.9
2022-07-30T05:50:57.789Z,13.3
2022-07-30T05:52:07.909Z,13
2022-07-30T05:53:18.025Z,13.3
2022-07-30T05:54:28.137Z,13
2022-07-30T05:56:47.399Z,13
2022-07-30T05:57:56.548Z,13.8
2022-07-30T05:59:05.681Z,13.2
2022-07-30T06:00:15.808Z,13.3
2022-07-30T06:01:25.924Z,13.1
2022-07-30T06:02:36.048Z,13
2022-07-30T06:03:46.162Z,12.9
2022-07-30T06:04:56.282Z,13.5
2022-07-30T06:06:06.400Z,13.5
2022-07-30T06:07:16.516Z,13.7
2022-07-30T06:08:26.638Z,13.3
2022-07-30T06:10:46.867Z,13.3
2022-07-30T06:11:56.976Z,13.5
2022-07-30T06:13:07.110Z,13.4
2022-07-30T06:14:16.244Z,13.1
2022-07-30T06:15:26.350Z,13.2
2022-07-30T06:16:36.464Z,13.4
2022-07-30T06:17:46.588Z,13.3
2022-07-30T06:18:56.713Z,13.3
2022-07-30T06:20:06.825Z,13.1
2022-07-30T06:21:16.944Z,13.2
2022-07-30T06:22:27.059Z,13.3
2022-07-30T06:23:36.203Z,13
2022-07-30T06:24:46.335Z,13.1
2022-07-30T06:25:56.443Z,13.1
2022-07-30T06:27:05.576Z,13
2022-07-30T06:28:14.744Z,13.5
2022-07-30T06:29:23.858Z,13.1
2022-07-30T06:30:33.969Z,13.3
2022-07-30T06:31:44.088Z,13
2022-07-30T06:32:54.217Z,13.3
2022-07-30T06:34:04.326Z,13.4
2022-07-30T06:35:14.450Z,13.3
2022-07-30T06:36:24.571Z,13.3
2022-07-30T06:37:34.678Z,13.1
2022-07-30T06:38:44.812Z,13.1
2022-07-30T06:39:54.911Z,12.9
2022-07-30T06:41:05.037Z,13.3
2022-07-30T06:42:15.156Z,13.1
2022-07-30T06:43:25.267Z,13.1
2022-07-30T06:44:34.414Z,12.6
2022-07-30T06:45:44.534Z,13.8
2022-07-30T06:46:54.654Z,13.7
2022-07-30T06:48:04.761Z,13.2
2022-07-30T06:49:14.872Z,13
2022-07-30T06:50:25.005Z,13.4
2022-07-30T06:51:35.125Z,13.1
2022-07-30T06:52:45.236Z,13.4
2022-07-30T06:53:54.372Z,13.2
2022-07-30T06:55:03.503Z,12.6
2022-07-30T06:56:12.655Z,13.5
2022-07-30T06:57:21.788Z,12.7
2022-07-30T06:58:31.904Z,13.8
2022-07-30T06:59:42.036Z,13.4
2022-07-30T07:00:52.144Z,13.1
2022-07-30T07:02:02.272Z,13.8
2022-07-30T07:03:12.383Z,13.4
2022-07-30T07:04:22.506Z,12.7
2022-07-30T07:05:32.606Z,12.7
2022-07-30T07:06:42.734Z,13.2
2022-07-30T07:07:52.858Z,13.3
2022-07-30T07:09:02.968Z,12.7
2022-07-30T07:10:13.092Z,13.1
2022-07-30T07:11:23.200Z,13.4
2022-07-30T07:12:32.349Z,13.2
2022-07-30T07:13:42.460Z,13.1
2022-07-30T07:14:52.567Z,13.3
2022-07-30T07:16:02.688Z,13.4
2022-07-30T07:17:12.803Z,13
2022-07-30T07:18:22.932Z,13.1
2022-07-30T07:19:33.050Z,12.5
2022-07-30T07:20:43.316Z,13.1
2022-07-30T07:21:52.450Z,12.9
2022-07-30T07:23:02.555Z,12.6
2022-07-30T07:24:12.690Z,13.5
2022-07-30T07:25:21.829Z,13.4
2022-07-30T07:26:30.954Z,13.4
2022-07-30T07:27:41.074Z,12.6
2022-07-30T07:28:51.202Z,13.4
2022-07-30T07:30:01.308Z,13.2
2022-07-30T07:31:11.443Z,13.4
2022-07-30T07:32:21.545Z,13.4
2022-07-30T07:33:31.666Z,13.3
2022-07-30T07:34:41.795Z,13.7
2022-07-30T07:35:51.903Z,12.7
2022-07-30T07:37:02.017Z,13.1
2022-07-30T07:38:12.135Z,12.9
2022-07-30T07:39:22.255Z,13.3
2022-07-30T07:40:32.377Z,12.7
2022-07-30T07:41:41.000Z,12.7
2022-07-30T07:42:51.635Z,12.7
2022-07-30T07:44:01.749Z,12.7
2022-07-30T07:45:11.863Z,13.1
2022-07-30T07:46:21.975Z,13.4
2022-07-30T07:47:32.090Z,13.1
2022-07-30T07:48:42.227Z,12.6
2022-07-30T07:49:51.363Z,13.3
2022-07-30T07:51:00.487Z,12.9
2022-07-30T07:52:10.611Z,12.9
2022-07-30T07:53:20.740Z,13.3
2022-07-30T07:54:30.857Z,12.6
2022-07-30T07:55:40.976Z,13.3
2022-07-30T07:56:51.081Z,13.3
2022-07-30T07:58:01.205Z,12.9
2022-07-30T07:59:11.325Z,13.3
2022-07-30T08:00:21.439Z,12.9
2022-07-30T08:01:31.567Z,13.5
2022-07-30T08:02:41.679Z,12.5
2022-07-30T08:03:51.802Z,13.4
2022-07-30T08:05:01.914Z,13.3
2022-07-30T08:06:11.049Z,13.2
2022-07-30T08:07:21.167Z,12.6
2022-07-30T08:08:31.273Z,13.1
2022-07-30T08:09:41.407Z,12.9
2022-07-30T08:10:51.526Z,12.7
2022-07-30T08:12:01.000Z,13.4
2022-07-30T08:13:11.760Z,13.1
2022-07-30T08:14:20.893Z,12.6
2022-07-30T08:15:30.021Z,13.2
2022-07-30T08:16:40.140Z,12.9
2022-07-30T08:17:50.268Z,13.3
2022-07-30T08:19:00.376Z,13.5
2022-07-30T08:20:10.510Z,13
2022-07-30T08:21:20.629Z,13.5
2022-07-30T08:22:30.742Z,13.2
2022-07-30T08:23:40.854Z,13.3
2022-07-30T08:24:50.974Z,13.5
2022-07-30T08:26:01.093Z,13.3
2022-07-30T08:27:11.206Z,12.9
2022-07-30T08:28:21.329Z,13.3
2022-07-30T08:29:31.445Z,12.7
2022-07-30T08:30:40.572Z,13.3
2022-07-30T08:31:50.690Z,12.7
2022-07-30T08:33:00.824Z,13.1
2022-07-30T08:34:10.937Z,12.7
2022-07-30T08:35:21.061Z,13.2
2022-07-30T08:36:31.168Z,12.6
2022-07-30T08:37:41.293Z,12.6
2022-07-30T08:38:50.428Z,13.2
2022-07-30T08:40:00.542Z,12.7
2022-07-30T08:41:09.685Z,12.9
2022-07-30T08:42:18.835Z,13
2022-07-30T08:43:27.967Z,12.7
2022-07-30T08:44:38.093Z,12.6
2022-07-30T08:45:47.228Z,12.7
2022-07-30T08:46:57.351Z,13.1
2022-07-30T08:48:06.498Z,12.9
2022-07-30T08:49:15.618Z,13.1
2022-07-30T08:50:25.734Z,13.5
2022-07-30T08:51:35.850Z,12.6
2022-07-30T08:52:45.984Z,13.5
2022-07-30T08:53:56.087Z,12.6
2022-07-30T08:55:06.212Z,12.7
2022-07-30T08:56:16.340Z,12.6
2022-07-30T08:57:26.441Z,12.9
2022-07-30T08:58:36.000Z,12.6
2022-07-30T09:02:06.923Z,13.5
2022-07-30T09:03:16.064Z,12.7
2022-07-30T09:04:25.191Z,13.3
2022-07-30T09:05:35.313Z,12.5
2022-07-30T09:06:45.445Z,12.7
2022-07-30T09:07:55.560Z,13.4
2022-07-30T09:09:05.665Z,13.3
2022-07-30T09:10:15.797Z,13.3
2022-07-30T09:11:25.898Z,12.7
2022-07-30T09:12:36.024Z,13.1
2022-07-30T09:13:46.141Z,12.4
2022-07-30T09:16:06.371Z,13.4
2022-07-30T09:17:16.508Z,12.9
2022-07-30T09:18:26.625Z,13.4
2022-07-30T09:19:35.753Z,12.7
2022-07-30T09:20:45.859Z,13.3
2022-07-30T09:21:55.992Z,12.5
2022-07-30T09:23:06.108Z,12.5
2022-07-30T09:24:16.224Z,12.5
2022-07-30T09:25:26.348Z,13
2022-07-30T09:26:36.459Z,13.1
2022-07-30T09:27:46.578Z,12.5
2022-07-30T09:28:55.715Z,13.3
2022-07-30T09:30:04.859Z,12.6
2022-07-30T09:31:14.974Z,13.3
2022-07-30T09:32:25.082Z,12.6
2022-07-30T09:33:35.215Z,13.3
2022-07-30T09:34:45.318Z,13.2
2022-07-30T09:35:55.436Z,12.3
2022-07-30T09:37:05.556Z,12.5
2022-07-30T09:38:15.686Z,12.5
2022-07-30T09:39:25.803Z,12.6
2022-07-30T09:40:35.921Z,12.6
2022-07-30T09:42:56.143Z,12.7
2022-07-30T09:44:06.270Z,12.7
2022-07-30T09:45:16.394Z,12.4
2022-07-30T09:46:25.513Z,13.1
2022-07-30T09:47:35.636Z,13.3
2022-07-30T09:48:45.770Z,12.7
2022-07-30T09:49:55.868Z,12.5
2022-07-30T09:51:05.990Z,12.6
2022-07-30T09:52:16.107Z,13.2
2022-07-30T09:53:26.232Z,12.5
2022-07-30T09:54:35.376Z,12.6
2022-07-30T09:55:44.509Z,13.2
2022-07-30T09:56:53.658Z,13.2
2022-07-30T09:58:02.785Z,12.7
2022-07-30T09:59:12.909Z,13.2
2022-07-30T10:00:23.034Z,13.1
2022-07-30T10:02:43.252Z,12.4
2022-07-30T10:03:53.369Z,12.7
2022-07-30T10:05:03.503Z,13.2
2022-07-30T10:06:13.608Z,13.2
2022-07-30T10:07:23.741Z,12.7
2022-07-30T10:08:33.854Z,13.3
2022-07-30T10:09:43.959Z,12.9
2022-07-30T10:10:54.077Z,12.6
2022-07-30T10:12:04.199Z,13.1
2022-07-30T10:13:13.333Z,12.7
2022-07-30T10:14:23.462Z,12.5
2022-07-30T10:15:33.574Z,12.7
2022-07-30T10:16:43.701Z,12.9
2022-07-30T10:17:52.825Z,12.6
2022-07-30T10:19:02.950Z,13.2
2022-07-30T10:20:13.059Z,12.6
2022-07-30T10:21:23.194Z,13.3
2022-07-30T10:22:32.338Z,12.5
2022-07-30T10:23:41.473Z,13.1
2022-07-30T10:24:51.574Z,13.1
2022-07-30T10:26:01.691Z,12.9
2022-07-30T10:27:11.810Z,12.1
2022-07-30T10:28:21.927Z,12.4
2022-07-30T10:29:32.046Z,12.9
2022-07-30T10:30:42.181Z,12.7
2022-07-30T10:31:52.299Z,12.9
2022-07-30T10:33:02.403Z,13.2
2022-07-30T10:34:12.518Z,13.3
2022-07-30T10:35:22.643Z,13.3
2022-07-30T10:36:32.768Z,13.5
2022-07-30T10:37:42.888Z,12.5
2022-07-30T10:38:52.004Z,12.5
2022-07-30T10:40:02.127Z,13.2
2022-07-30T10:41:12.249Z,12.3
2022-07-30T10:42:22.376Z,13.2
2022-07-30T10:43:32.476Z,13.2
2022-07-30T10:44:42.613Z,12.4
2022-07-30T10:45:52.712Z,12.6
2022-07-30T10:47:01.866Z,12.3
2022-07-30T10:48:11.000Z,12.3
2022-07-30T10:49:20.147Z,12.8
2022-07-30T10:50:29.282Z,12.7
2022-07-30T10:51:38.414Z,13.3
2022-07-30T10:52:47.553Z,12.1
2022-07-30T10:53:57.669Z,12.7
2022-07-30T10:55:07.795Z,12.1
2022-07-30T10:56:17.911Z,13.1
2022-07-30T10:57:28.018Z,12.2
2022-07-30T10:58:38.135Z,13.2
2022-07-30T10:59:48.266Z,13.3
2022-07-30T11:00:58.385Z,12.5
2022-07-30T11:02:08.495Z,13.3
2022-07-30T11:03:18.609Z,12.6
2022-07-30T11:04:28.742Z,12.7
2022-07-30T11:05:38.845Z,12.7
2022-07-30T11:06:48.971Z,13.4
2022-07-30T11:07:58.102Z,13.2
2022-07-30T11:09:08.223Z,12.6
2022-07-30T11:10:18.338Z,13.1
2022-07-30T11:11:28.463Z,13.3
2022-07-30T11:12:38.576Z,12.5
2022-07-30T11:14:58.810Z,13.2
2022-07-30T11:16:08.922Z,12.5
2022-07-30T11:17:18.068Z,12.3
2022-07-30T11:18:27.207Z,12.4
2022-07-30T11:19:37.332Z,13.1
2022-07-30T11:20:47.439Z,12.6
2022-07-30T11:21:57.572Z,13.1
2022-07-30T11:23:07.688Z,12.7
2022-07-30T11:24:17.804Z,13.2
2022-07-30T11:25:27.914Z,13.3
2022-07-30T11:26:38.043Z,12.6
2022-07-30T11:27:48.150Z,13.2
2022-07-30T11:28:58.272Z,13.3
2022-07-30T11:30:08.398Z,13.3
2022-07-30T11:31:18.503Z,12.3
2022-07-30T11:32:28.617Z,13.1
2022-07-30T11:33:38.732Z,13.2
2022-07-30T11:34:47.883Z,12.5
2022-07-30T11:37:08.121Z,12.8
2022-07-30T11:38:18.237Z,13
2022-07-30T11:39:28.354Z,12.4
2022-07-30T11:40:38.465Z,12.7
2022-07-30T11:41:48.580Z,12.7
2022-07-30T11:42:57.726Z,12.6
2022-07-30T11:44:06.864Z,12.5
2022-07-30T11:45:16.979Z,13.3
2022-07-30T11:46:27.107Z,12.9
2022-07-30T11:47:37.218Z,12.5
2022-07-30T11:48:47.335Z,13.3
2022-07-30T11:49:57.445Z,12.3
2022-07-30T11:51:07.574Z,12.7
2022-07-30T11:52:17.683Z,12.5
2022-07-30T11:53:27.808Z,13.1
2022-07-30T11:54:37.927Z,12.3
2022-07-30T11:55:48.043Z,13.1
2022-07-30T11:56:58.153Z,13
2022-07-30T11:58:08.273Z,13.1
2022-07-30T11:59:17.412Z,12.7
2022-07-30T12:00:27.535Z,12.3
2022-07-30T12:01:37.000Z,13.1
2022-07-30T12:02:47.763Z,12.6
2022-07-30T12:03:57.883Z,12.2
2022-07-30T12:05:07.993Z,12.5
2022-07-30T12:06:18.115Z,12.7
2022-07-30T12:07:27.264Z,13.1
2022-07-30T12:08:36.408Z,12.5
2022-07-30T12:09:46.511Z,13.2
2022-07-30T12:10:56.641Z,12.3
2022-07-30T12:12:05.785Z,13.1
2022-07-30T12:13:14.912Z,12.6
2022-07-30T12:14:25.030Z,12.7
2022-07-30T12:15:35.152Z,13.2
2022-07-30T12:16:45.260Z,12.4
2022-07-30T12:17:55.381Z,12.9
2022-07-30T12:19:05.511Z,12.1
2022-07-30T12:20:15.625Z,13
2022-07-30T12:21:25.732Z,13.1
2022-07-30T12:22:35.864Z,13
2022-07-30T12:23:45.975Z,12.7
2022-07-30T12:24:56.087Z,12
2022-07-30T12:26:06.214Z,12
2022-07-30T12:27:16.325Z,12.7
2022-07-30T12:28:26.572Z,12.3
2022-07-30T12:29:36.682Z,13.2
2022-07-30T12:30:46.796Z,12.6
2022-07-30T12:31:56.914Z,12.5
2022-07-30T12:33:07.039Z,12.3
2022-07-30T12:34:17.168Z,12.9
2022-07-30T12:35:27.277Z,13
2022-07-30T12:36:36.427Z,12.6
2022-07-30T12:37:45.566Z,12.5
2022-07-30T12:38:54.692Z,13
2022-07-30T12:40:03.845Z,12.5
2022-07-30T12:41:13.951Z,12.5
2022-07-30T12:42:24.069Z,12
2022-07-30T12:43:34.197Z,12.9
2022-07-30T12:44:44.311Z,13
2022-07-30T12:45:54.431Z,12.1
2022-07-30T12:47:04.539Z,12
2022-07-30T12:48:14.667Z,12.5
2022-07-30T12:49:24.775Z,12.6
2022-07-30T12:50:34.892Z,12.9
2022-07-30T12:51:45.018Z,12.1
2022-07-30T12:52:55.135Z,12.3
2022-07-30T12:54:05.242Z,12.9
2022-07-30T12:55:14.376Z,12.1
2022-07-30T12:56:24.496Z,12.1
2022-07-30T12:57:34.619Z,12.9
2022-07-30T12:58:44.749Z,12.5
2022-07-30T12:59:54.854Z,12.4
2022-07-30T13:01:04.967Z,12
2022-07-30T13:02:15.086Z,12.6
2022-07-30T13:03:24.246Z,12.6
2022-07-30T13:04:33.380Z,12.7
2022-07-30T13:05:43.490Z,12.7
2022-07-30T13:06:53.601Z,12.6
2022-07-30T13:08:03.729Z,12.7
2022-07-30T13:09:13.855Z,12.5
2022-07-30T13:10:23.964Z,12.7
2022-07-30T13:11:34.072Z,12.7
2022-07-30T13:12:44.189Z,12.1
2022-07-30T13:13:54.315Z,12
2022-07-30T13:15:04.424Z,12.5
2022-07-30T13:16:14.552Z,12.5
2022-07-30T13:17:24.661Z,12.1
2022-07-30T13:18:34.000Z,12.6
2022-07-30T13:19:43.925Z,12.5
2022-07-30T13:20:54.050Z,12.6
2022-07-30T13:22:04.151Z,11.9
2022-07-30T13:23:14.267Z,12.7
2022-07-30T13:24:24.397Z,12.4
2022-07-30T13:25:34.507Z,12.4
2022-07-30T13:26:44.623Z,12.1
2022-07-30T13:27:53.775Z,11.8
2022-07-30T13:29:02.902Z,12.5
2022-07-30T13:30:13.034Z,12.5
2022-07-30T13:31:23.149Z,12.5
2022-07-30T13:32:33.257Z,12.5
2022-07-30T13:33:43.374Z,12.5
2022-07-30T13:34:53.503Z,11.8
2022-07-30T13:36:03.615Z,12.1
2022-07-30T13:37:13.726Z,12.7
2022-07-30T13:38:23.845Z,11.9
2022-07-30T13:39:33.980Z,12
2022-07-30T13:40:44.096Z,12.5
2022-07-30T13:41:54.208Z,12.7
2022-07-30T13:43:04.315Z,12
2022-07-30T13:44:13.455Z,12.4
2022-07-30T13:45:23.580Z,11.9
2022-07-30T13:46:33.698Z,11.8
2022-07-30T13:47:43.807Z,11.9
2022-07-30T13:48:53.936Z,12.4
2022-07-30T13:50:04.046Z,12.4
2022-07-30T13:51:14.175Z,11.8
2022-07-30T13:52:24.292Z,12.1
2022-07-30T13:53:34.405Z,11.8
2022-07-30T13:54:44.525Z,11.9
2022-07-30T13:55:54.635Z,11.8
2022-07-30T13:57:04.756Z,12.1
2022-07-30T13:58:14.879Z,12.4
2022-07-30T13:59:24.013Z,11.8
2022-07-30T14:00:34.129Z,12.3
2022-07-30T14:01:44.247Z,12.5
2022-07-30T14:02:54.370Z,12
2022-07-30T14:04:04.473Z,11.7
2022-07-30T14:05:14.607Z,12
2022-07-30T14:06:24.711Z,12.5
2022-07-30T14:07:34.832Z,11.6
2022-07-30T14:08:44.946Z,12.5
2022-07-30T14:09:55.062Z,12.5
2022-07-30T14:11:05.190Z,11.7
2022-07-30T14:12:14.337Z,12.5
2022-07-30T14:13:24.452Z,12
2022-07-30T14:14:34.575Z,12.1
2022-07-30T14:15:44.684Z,12.4
2022-07-30T14:16:54.799Z,11.5
2022-07-30T14:18:04.911Z,11.9
2022-07-30T14:19:15.046Z,11.8
2022-07-30T14:20:25.159Z,11.9
2022-07-30T14:21:35.267Z,12
2022-07-30T14:22:45.397Z,11.6
2022-07-30T14:23:55.520Z,11.6
2022-07-30T14:25:05.618Z,11.8
2022-07-30T14:26:15.746Z,11.8
2022-07-30T14:27:24.881Z,11.7
2022-07-30T14:28:35.003Z,12.4
2022-07-30T14:29:45.122Z,12
2022-07-30T14:30:55.234Z,11.7
2022-07-30T14:32:05.363Z,12.1
2022-07-30T14:33:15.478Z,12
2022-07-30T14:34:25.579Z,11.9
2022-07-30T14:35:35.705Z,11.7
2022-07-30T14:36:45.818Z,11.6
2022-07-30T14:37:55.946Z,12.1
2022-07-30T14:39:06.066Z,12
2022-07-30T14:40:16.180Z,12
2022-07-30T14:41:26.291Z,11.7
2022-07-30T14:42:35.426Z,12
2022-07-30T14:43:45.551Z,11.9
2022-07-30T14:44:55.664Z,12
2022-07-30T14:46:05.784Z,11.6
2022-07-30T14:47:15.906Z,11.9
2022-07-30T14:49:36.140Z,11.9
2022-07-30T14:50:46.254Z,12.5
2022-07-30T14:51:56.367Z,12.1
2022-07-30T14:53:06.497Z,11.7
2022-07-30T14:54:16.622Z,12.1
2022-07-30T14:55:26.722Z,12.1
2022-07-30T14:56:36.842Z,12.1
2022-07-30T14:57:46.973Z,11.9
2022-07-30T14:58:56.098Z,12
2022-07-30T15:00:06.226Z,11.9
2022-07-30T15:01:16.341Z,11.7
2022-07-30T15:02:26.464Z,12.1
2022-07-30T15:03:36.567Z,11.8
2022-07-30T15:04:46.684Z,11.9
2022-07-30T15:05:56.815Z,11.8
2022-07-30T15:07:06.919Z,11.6
2022-07-30T15:08:17.036Z,12.1
2022-07-30T15:09:27.163Z,11.4
2022-07-30T15:10:37.276Z,11.9
2022-07-30T15:11:47.403Z,11.7
2022-07-30T15:12:57.522Z,12.1
2022-07-30T15:14:06.661Z,11.7
2022-07-30T15:15:16.764Z,11.2
2022-07-30T15:16:26.881Z,12.1
2022-07-30T15:17:37.010Z,11.8
2022-07-30T15:18:47.117Z,11.8
2022-07-30T15:19:57.238Z,12.1
2022-07-30T15:21:07.350Z,11.8
2022-07-30T15:22:17.473Z,11.6
2022-07-30T15:23:27.601Z,11.7
2022-07-30T15:24:37.717Z,11.8
2022-07-30T15:25:47.826Z,11.4
2022-07-30T15:26:57.957Z,11.8
2022-07-30T15:28:08.075Z,11.2
2022-07-30T15:29:17.205Z,11.7
2022-07-30T15:30:27.310Z,11.4
2022-07-30T15:31:37.444Z,11.3
2022-07-30T15:32:47.548Z,11.9
2022-07-30T15:33:57.681Z,11.2
2022-07-30T15:35:07.791Z,11.8
2022-07-30T15:36:17.919Z,11.9
2022-07-30T15:37:28.028Z,11.6
2022-07-30T15:38:38.151Z,12.1
2022-07-30T15:39:48.260Z,12.2
2022-07-30T15:40:58.385Z,11.8
2022-07-30T15:42:08.504Z,11.2
2022-07-30T15:43:18.614Z,11.9
2022-07-30T15:44:27.748Z,11.9
2022-07-30T15:45:37.875Z,12
2022-07-30T15:46:47.983Z,12.1
2022-07-30T15:47:58.100Z,11.3
2022-07-30T15:49:08.235Z,11.9
2022-07-30T15:50:18.349Z,11.7
2022-07-30T15:51:28.457Z,11.3
2022-07-30T15:52:38.587Z,11.4
2022-07-30T15:53:48.690Z,11.3
2022-07-30T15:54:58.813Z,11.9